Weather observations for the past three days for
Marysville, Yuba County Airport
Metric (Imperial)
Date Time (pdt) Wind (kph) Vis. (km) Weather Sky Cond. Temperature (ºC) Relative Humidity Wind Chill (°C) Heat Index (°C) Pressure Precipitation (cm)
Air Dwpt 6 hour altimeter (cm) sea level (mb) 1 hr 3 hr 6 hr
Max. Min.
10 14:53 Vrbl 9 16.09 Fair CLR 29.4 16.1 45% 30 75.9 1012.3
10 12:53 S 7 16.09 Fair CLR 26.1 15 50% 27 76.02 1013.7
10 11:53 Vrbl 6 16.09 Fair CLR 23.9 13.9 54% 25 76.05 1014.1
10 10:53 Vrbl 6 16.09 Fair CLR 22.2 13.3 22.2 14.4 57% 76.07 1014.4
10 09:53 S 9 16.09 Fair CLR 20 12.8 63% 76.05 1014.1
10 08:53 S 9 16.09 Fair CLR 17.8 12.2 70% 76.02 1014.0
10 07:53 SE 15 16.09 Fair CLR 16.7 12.2 75% 76 1013.6
10 06:53 S 9 16.09 Fair CLR 15 11.7 81% 75.97 1013.2
10 05:53 SE 7 16.09 Fair CLR 14.4 12.2 87% 75.95 1012.8
10 04:53 S 9 16.09 Fair CLR 15 12.2 21.1 15 83% 75.95 1012.7
10 03:53 SE 9 16.09 Fair CLR 16.1 12.8 81% 75.9 1012.2
10 02:53 S 13 16.09 Fair CLR 17.2 12.8 76% 75.87 1011.8
10 01:53 S 13 16.09 Fair CLR 18.3 13.3 73% 75.84 1011.6
10 00:53 S 13 16.09 Fair CLR 19.4 14.4 73% 75.84 1011.5
09 23:53 SE 11 16.09 Fair CLR 20 15 73% 75.84 1011.5
09 22:53 SE 9 16.09 Fair CLR 21.1 15.6 31.1 21.1 71% 75.84 1011.5
09 21:53 SE 17 16.09 Fair CLR 22.8 16.1 66% 75.82 1011.1
09 20:53 S 11 16.09 Fair CLR 25 17.2 62% 26 75.77 1010.3
09 19:53 SE 7 16.09 Fair CLR 27.2 16.1 51% 28 75.72 1009.8
09 18:53 SE 13 16.09 Fair CLR 30 14.4 39% 30 75.72 1009.8
09 17:53 SE 9 16.09 Fair CLR 31.1 14.4 36% 31 75.74 1010.1
09 16:53 Vrbl 6 16.09 Fair CLR 30.6 14.4 31.1 23.3 37% 30 75.77 1010.5
09 15:53 Vrbl 9 16.09 Fair CLR 30 15 40% 30 75.82 1011.1
09 14:53 Calm 16.09 Fair CLR 28.9 15.6 44% 29 75.87 1011.9
09 13:53 Calm 16.09 Fair CLR 27.8 15 46% 28 75.92 1012.5
09 12:53 Vrbl 6 16.09 Fair CLR 26.7 15.6 51% 27 75.97 1013.1
09 11:53 Vrbl 6 16.09 Fair CLR 25 15 54% 26 76.02 1013.9
09 10:53 SW 6 16.09 Fair CLR 23.3 14.4 23.3 14.4 57% 76.07 1014.4
09 09:53 Vrbl 7 16.09 Fair CLR 21.1 13.9 64% 76.07 1014.5
09 08:53 S 7 16.09 Fair CLR 18.9 13.3 70% 76.07 1014.6
09 07:53 SE 7 16.09 Fair CLR 16.7 12.8 78% 76.07 1014.6
09 06:53 Calm 16.09 Fair CLR 15 12.8 87% 76.07 1014.5
09 05:53 E 6 16.09 Fair CLR 14.4 12.2 87% 76.05 1014.1
09 04:53 SW 6 16.09 Fair CLR 14.4 12.8 20.6 14.4 90% 76.05 1014.2
09 03:53 S 9 16.09 Fair CLR 15.6 13.3 86% 76.02 1013.7
09 02:53 SE 7 16.09 Fair CLR 16.7 13.9 84% 76.02 1013.7
09 01:53 SE 7 16.09 Fair CLR 17.2 15 87% 76.05 1014.0
09 00:53 SE 6 16.09 Fair CLR 17.8 15.6 87% 76.05 1014.1
08 23:53 SE 7 16.09 Fair CLR 18.9 16.1 84% 76.05 1014.0
08 22:53 E 7 16.09 Fair CLR 20.6 17.2 30 20.6 81% 76.02 1013.9
08 21:53 S 9 16.09 Fair CLR 21.7 17.2 76% 76 1013.6
08 20:53 S 7 16.09 Fair CLR 23.3 16.1 64% 75.97 1013.1
08 19:53 SE 7 16.09 Fair CLR 27.2 15.6 49% 28 75.95 1012.8
08 18:53 SW 7 16.09 Fair CLR 28.9 15.6 44% 29 75.95 1012.9
08 17:53 S 6 16.09 Fair CLR 28.9 15 43% 29 75.97 1013.2
08 16:53 SW 9 16.09 Fair CLR 28.9 15 29.4 20.6 43% 29 76.02 1013.8
08 15:53 Vrbl 6 16.09 Fair CLR 28.9 14.4 41% 29 76.07 1014.5
08 14:53 N 6 16.09 Fair CLR 27.8 14.4 44% 28 76.12 1015.3
08 13:53 Vrbl 6 16.09 Fair CLR 26.7 15 49% 27 76.2 1016.3
08 12:53 SW 7 16.09 Fair CLR 25 13.9 50% 26 76.25 1016.9
08 11:53 Calm 16.09 Fair CLR 22.8 12.8 53% 76.3 1017.5
08 10:53 SW 7 16.09 Fair CLR 20.6 12.8 20.6 12.8 61% 76.33 1017.8
08 09:53 SE 11 16.09 Fair CLR 19.4 13.3 68% 76.3 1017.7
08 08:53 S 11 16.09 Fair CLR 16.7 12.8 78% 76.33 1017.8
08 07:53 SE 9 16.09 Fair CLR 14.4 11.7 84% 76.3 1017.7
08 06:53 SE 9 16.09 Fair CLR 13.3 11.7 90% 76.28 1017.1
08 05:53 S 6 16.09 Fair CLR 12.8 11.7 93% 76.25 1016.7
08 04:53 SW 6 16.09 Fair CLR 13.9 12.2 19.4 13.9 90% 76.23 1016.5
08 03:53 S 11 16.09 Fair CLR 14.4 12.8 90% 76.2 1016.1
08 02:53 SE 7 16.09 Fair CLR 15 13.3 90% 76.17 1015.9
08 01:53 SE 11 16.09 Fair CLR 16.1 13.9 87% 76.17 1015.8
08 00:53 S 11 16.09 Fair CLR 17.2 14.4 84% 76.15 1015.6
07 23:53 SE 9 16.09 Fair CLR 18.3 15.6 84% 76.12 1015.3
07 22:53 S 11 16.09 Fair CLR 19.4 16.1 28.3 19.4 81% 76.12 1015.1
07 21:53 S 9 16.09 Fair CLR 21.1 17.2 79% 76.12 1015.1
07 20:53 E 7 16.09 Fair CLR 23.9 16.1 62% 25 76.07 1014.4
07 19:53 Calm 16.09 Fair CLR 25 16.1 58% 26 76.05 1014.0
07 18:53 S 6 16.09 Fair CLR 27.2 16.1 51% 28 76.05 1014.0
07 17:53 S 9 16.09 Fair CLR 27.8 16.1 49% 28 76.05 1014.2
07 16:53 Vrbl 6 16.09 Fair CLR 27.8 16.1 27.8 21.1 49% 28 76.07 1014.6
07 15:53 Vrbl 7 16.09 Fair CLR 27.8 16.1 49% 28 76.12 1015.3
Date Time (pdt) Wind (kph) Vis. (km) Weather Sky Cond. Air Dwpt Max. Min. Relative Humidity Wind Chill (°C) Heat Index (°C) altimeter (cm) sea level (mb) 1 hr 3 hr 6 hr
6 hour
Temperature (ºC) Pressure Precipitation (cm)